sensor_id;sensor_type;location;lat;lon;timestamp;P1;durP1;ratioP1;P2;durP2;ratioP2
9420;SDS011;4749;51.398;5.466;2022-12-29T00:01:41;2.50;;;1.80;;
9420;SDS011;4749;51.398;5.466;2022-12-29T00:04:09;3.73;;;2.00;;
9420;SDS011;4749;51.398;5.466;2022-12-29T00:06:42;2.93;;;1.83;;
9420;SDS011;4749;51.398;5.466;2022-12-29T00:09:12;2.70;;;2.00;;
9420;SDS011;4749;51.398;5.466;2022-12-29T00:11:41;2.50;;;2.20;;
9420;SDS011;4749;51.398;5.466;2022-12-29T00:14:09;2.90;;;2.23;;
9420;SDS011;4749;51.398;5.466;2022-12-29T00:16:56;4.67;;;2.40;;
9420;SDS011;4749;51.398;5.466;2022-12-29T00:19:24;3.50;;;2.30;;
9420;SDS011;4749;51.398;5.466;2022-12-29T00:22:11;3.10;;;2.47;;
9420;SDS011;4749;51.398;5.466;2022-12-29T00:24:59;3.50;;;2.43;;
9420;SDS011;4749;51.398;5.466;2022-12-29T00:27:28;4.30;;;2.93;;
9420;SDS011;4749;51.398;5.466;2022-12-29T00:30:16;4.13;;;2.63;;
9420;SDS011;4749;51.398;5.466;2022-12-29T00:33:18;2.33;;;2.10;;
9420;SDS011;4749;51.398;5.466;2022-12-29T00:36:19;2.40;;;2.03;;
9420;SDS011;4749;51.398;5.466;2022-12-29T00:38:59;2.87;;;2.13;;
9420;SDS011;4749;51.398;5.466;2022-12-29T00:41:50;1.90;;;1.70;;
9420;SDS011;4749;51.398;5.466;2022-12-29T00:44:35;2.73;;;2.10;;
9420;SDS011;4749;51.398;5.466;2022-12-29T00:47:03;2.53;;;1.60;;
9420;SDS011;4749;51.398;5.466;2022-12-29T00:49:30;1.90;;;1.67;;
9420;SDS011;4749;51.398;5.466;2022-12-29T00:52:03;2.67;;;1.50;;
9420;SDS011;4749;51.398;5.466;2022-12-29T00:54:34;2.63;;;1.70;;
9420;SDS011;4749;51.398;5.466;2022-12-29T00:57:03;1.87;;;1.40;;
9420;SDS011;4749;51.398;5.466;2022-12-29T00:59:36;2.40;;;1.50;;
9420;SDS011;4749;51.398;5.466;2022-12-29T01:02:07;2.20;;;1.47;;
9420;SDS011;4749;51.398;5.466;2022-12-29T01:04:35;3.87;;;1.50;;
9420;SDS011;4749;51.398;5.466;2022-12-29T01:07:03;2.83;;;1.50;;
9420;SDS011;4749;51.398;5.466;2022-12-29T01:09:31;1.80;;;1.40;;
9420;SDS011;4749;51.398;5.466;2022-12-29T01:12:17;1.90;;;1.20;;
9420;SDS011;4749;51.398;5.466;2022-12-29T01:15:05;1.70;;;1.20;;
9420;SDS011;4749;51.398;5.466;2022-12-29T01:17:37;2.50;;;1.47;;
9420;SDS011;4749;51.398;5.466;2022-12-29T01:20:04;1.83;;;1.20;;
9420;SDS011;4749;51.398;5.466;2022-12-29T01:22:32;2.20;;;1.30;;
9420;SDS011;4749;51.398;5.466;2022-12-29T01:24:59;2.10;;;1.13;;
9420;SDS011;4749;51.398;5.466;2022-12-29T01:27:27;1.70;;;1.07;;
9420;SDS011;4749;51.398;5.466;2022-12-29T01:29:54;2.37;;;1.10;;
9420;SDS011;4749;51.398;5.466;2022-12-29T01:32:21;1.60;;;0.83;;
9420;SDS011;4749;51.398;5.466;2022-12-29T01:34:49;1.43;;;1.00;;
9420;SDS011;4749;51.398;5.466;2022-12-29T01:37:16;4.23;;;0.90;;
9420;SDS011;4749;51.398;5.466;2022-12-29T01:39:43;2.03;;;1.40;;
9420;SDS011;4749;51.398;5.466;2022-12-29T01:42:18;2.97;;;1.00;;
9420;SDS011;4749;51.398;5.466;2022-12-29T01:44:50;3.47;;;0.90;;
9420;SDS011;4749;51.398;5.466;2022-12-29T01:47:28;1.00;;;0.90;;
9420;SDS011;4749;51.398;5.466;2022-12-29T01:50:09;3.93;;;0.90;;
9420;SDS011;4749;51.398;5.466;2022-12-29T01:52:47;3.07;;;0.80;;
9420;SDS011;4749;51.398;5.466;2022-12-29T01:55:34;2.40;;;0.80;;
9420;SDS011;4749;51.398;5.466;2022-12-29T01:58:10;1.63;;;0.70;;
9420;SDS011;4749;51.398;5.466;2022-12-29T02:00:41;2.40;;;0.80;;
9420;SDS011;4749;51.398;5.466;2022-12-29T02:03:08;2.30;;;0.80;;
9420;SDS011;4749;51.398;5.466;2022-12-29T02:05:44;1.40;;;0.70;;
9420;SDS011;4749;51.398;5.466;2022-12-29T02:08:36;2.03;;;0.80;;
9420;SDS011;4749;51.398;5.466;2022-12-29T02:11:06;1.93;;;1.00;;
9420;SDS011;4749;51.398;5.466;2022-12-29T02:13:34;2.17;;;0.83;;
9420;SDS011;4749;51.398;5.466;2022-12-29T02:22:33;2.40;;;0.87;;
9420;SDS011;4749;51.398;5.466;2022-12-29T02:27:57;1.60;;;0.87;;
9420;SDS011;4749;51.398;5.466;2022-12-29T02:39:52;3.53;;;0.70;;
9420;SDS011;4749;51.398;5.466;2022-12-29T02:43:01;2.90;;;0.90;;
9420;SDS011;4749;51.398;5.466;2022-12-29T02:45:58;2.37;;;0.70;;
9420;SDS011;4749;51.398;5.466;2022-12-29T02:49:09;3.43;;;1.20;;
9420;SDS011;4749;51.398;5.466;2022-12-29T02:51:40;2.13;;;1.10;;
9420;SDS011;4749;51.398;5.466;2022-12-29T02:54:27;1.77;;;0.80;;
9420;SDS011;4749;51.398;5.466;2022-12-29T02:57:14;3.67;;;1.10;;
9420;SDS011;4749;51.398;5.466;2022-12-29T03:08:53;1.33;;;0.80;;
9420;SDS011;4749;51.398;5.466;2022-12-29T03:15:30;2.07;;;0.73;;
9420;SDS011;4749;51.398;5.466;2022-12-29T03:18:37;2.50;;;0.80;;
9420;SDS011;4749;51.398;5.466;2022-12-29T03:24:31;1.93;;;0.70;;
9420;SDS011;4749;51.398;5.466;2022-12-29T03:27:05;2.63;;;0.90;;
9420;SDS011;4749;51.398;5.466;2022-12-29T03:29:36;2.13;;;0.80;;
9420;SDS011;4749;51.398;5.466;2022-12-29T03:32:31;1.63;;;0.80;;
9420;SDS011;4749;51.398;5.466;2022-12-29T03:35:22;1.47;;;0.60;;
9420;SDS011;4749;51.398;5.466;2022-12-29T03:37:59;2.60;;;0.77;;
9420;SDS011;4749;51.398;5.466;2022-12-29T03:40:48;1.50;;;0.80;;
9420;SDS011;4749;51.398;5.466;2022-12-29T03:43:21;3.67;;;0.73;;
9420;SDS011;4749;51.398;5.466;2022-12-29T03:45:49;1.87;;;0.70;;
9420;SDS011;4749;51.398;5.466;2022-12-29T03:48:16;4.40;;;1.33;;
9420;SDS011;4749;51.398;5.466;2022-12-29T03:50:43;3.23;;;0.80;;
9420;SDS011;4749;51.398;5.466;2022-12-29T03:53:11;1.97;;;0.70;;
9420;SDS011;4749;51.398;5.466;2022-12-29T03:55:38;3.30;;;0.87;;
9420;SDS011;4749;51.398;5.466;2022-12-29T03:58:05;3.50;;;0.67;;
9420;SDS011;4749;51.398;5.466;2022-12-29T04:00:32;2.93;;;0.87;;
9420;SDS011;4749;51.398;5.466;2022-12-29T04:02:59;2.23;;;0.67;;
9420;SDS011;4749;51.398;5.466;2022-12-29T04:05:27;1.87;;;0.67;;
9420;SDS011;4749;51.398;5.466;2022-12-29T04:07:54;1.00;;;0.67;;
9420;SDS011;4749;51.398;5.466;2022-12-29T04:10:21;2.50;;;1.00;;
9420;SDS011;4749;51.398;5.466;2022-12-29T04:12:48;2.13;;;0.53;;
9420;SDS011;4749;51.398;5.466;2022-12-29T04:15:15;2.10;;;0.57;;
9420;SDS011;4749;51.398;5.466;2022-12-29T04:17:43;2.17;;;0.67;;
9420;SDS011;4749;51.398;5.466;2022-12-29T04:20:10;3.80;;;0.63;;
9420;SDS011;4749;51.398;5.466;2022-12-29T04:23:00;2.47;;;0.60;;
9420;SDS011;4749;51.398;5.466;2022-12-29T04:25:31;3.20;;;0.70;;
9420;SDS011;4749;51.398;5.466;2022-12-29T04:27:59;3.40;;;0.60;;
9420;SDS011;4749;51.398;5.466;2022-12-29T04:30:27;3.20;;;0.70;;
9420;SDS011;4749;51.398;5.466;2022-12-29T04:32:54;2.90;;;1.13;;
9420;SDS011;4749;51.398;5.466;2022-12-29T04:35:21;4.80;;;0.70;;
9420;SDS011;4749;51.398;5.466;2022-12-29T04:37:48;4.87;;;0.80;;
9420;SDS011;4749;51.398;5.466;2022-12-29T04:40:15;5.83;;;1.23;;
9420;SDS011;4749;51.398;5.466;2022-12-29T04:42:42;6.83;;;1.27;;
9420;SDS011;4749;51.398;5.466;2022-12-29T04:45:09;4.63;;;1.73;;
9420;SDS011;4749;51.398;5.466;2022-12-29T04:47:37;3.67;;;1.10;;
9420;SDS011;4749;51.398;5.466;2022-12-29T04:50:04;7.87;;;1.20;;
9420;SDS011;4749;51.398;5.466;2022-12-29T04:52:31;5.30;;;1.20;;
9420;SDS011;4749;51.398;5.466;2022-12-29T04:55:00;4.10;;;0.90;;
9420;SDS011;4749;51.398;5.466;2022-12-29T04:57:27;3.00;;;0.80;;
9420;SDS011;4749;51.398;5.466;2022-12-29T04:59:54;5.30;;;1.27;;
9420;SDS011;4749;51.398;5.466;2022-12-29T05:02:21;3.50;;;0.90;;
9420;SDS011;4749;51.398;5.466;2022-12-29T05:04:48;3.97;;;0.87;;
9420;SDS011;4749;51.398;5.466;2022-12-29T05:07:15;3.97;;;0.90;;
9420;SDS011;4749;51.398;5.466;2022-12-29T05:09:43;4.10;;;0.90;;
9420;SDS011;4749;51.398;5.466;2022-12-29T05:12:10;4.40;;;0.90;;
9420;SDS011;4749;51.398;5.466;2022-12-29T05:14:37;4.23;;;0.90;;
9420;SDS011;4749;51.398;5.466;2022-12-29T05:17:04;4.30;;;1.13;;
9420;SDS011;4749;51.398;5.466;2022-12-29T05:19:32;1.97;;;0.67;;
9420;SDS011;4749;51.398;5.466;2022-12-29T05:22:00;1.27;;;0.73;;
9420;SDS011;4749;51.398;5.466;2022-12-29T05:24:27;2.20;;;0.80;;
9420;SDS011;4749;51.398;5.466;2022-12-29T05:26:54;3.63;;;0.80;;
9420;SDS011;4749;51.398;5.466;2022-12-29T05:29:21;4.43;;;1.20;;
9420;SDS011;4749;51.398;5.466;2022-12-29T05:31:48;3.30;;;0.93;;
9420;SDS011;4749;51.398;5.466;2022-12-29T05:34:15;2.43;;;0.77;;
9420;SDS011;4749;51.398;5.466;2022-12-29T05:36:43;7.40;;;1.43;;
9420;SDS011;4749;51.398;5.466;2022-12-29T05:39:10;1.63;;;0.67;;
9420;SDS011;4749;51.398;5.466;2022-12-29T05:41:37;2.00;;;0.77;;
9420;SDS011;4749;51.398;5.466;2022-12-29T05:44:04;3.47;;;1.03;;
9420;SDS011;4749;51.398;5.466;2022-12-29T05:46:32;3.73;;;0.90;;
9420;SDS011;4749;51.398;5.466;2022-12-29T05:48:59;4.40;;;1.00;;
9420;SDS011;4749;51.398;5.466;2022-12-29T05:51:26;3.57;;;0.70;;
9420;SDS011;4749;51.398;5.466;2022-12-29T05:53:53;3.97;;;0.90;;
9420;SDS011;4749;51.398;5.466;2022-12-29T05:56:20;3.63;;;1.03;;
9420;SDS011;4749;51.398;5.466;2022-12-29T05:58:47;4.27;;;1.00;;
9420;SDS011;4749;51.398;5.466;2022-12-29T06:01:15;5.40;;;1.00;;
9420;SDS011;4749;51.398;5.466;2022-12-29T06:03:42;4.90;;;1.00;;
9420;SDS011;4749;51.398;5.466;2022-12-29T06:06:13;3.20;;;1.03;;
9420;SDS011;4749;51.398;5.466;2022-12-29T06:08:41;5.83;;;1.30;;
9420;SDS011;4749;51.398;5.466;2022-12-29T06:11:08;2.43;;;0.87;;
9420;SDS011;4749;51.398;5.466;2022-12-29T06:13:36;3.67;;;0.83;;
9420;SDS011;4749;51.398;5.466;2022-12-29T06:16:03;4.00;;;1.63;;
9420;SDS011;4749;51.398;5.466;2022-12-29T06:18:31;3.30;;;1.00;;
9420;SDS011;4749;51.398;5.466;2022-12-29T06:21:02;5.53;;;1.00;;
9420;SDS011;4749;51.398;5.466;2022-12-29T06:23:30;4.00;;;0.90;;
9420;SDS011;4749;51.398;5.466;2022-12-29T06:25:58;4.87;;;0.97;;
9420;SDS011;4749;51.398;5.466;2022-12-29T06:28:25;3.90;;;0.90;;
9420;SDS011;4749;51.398;5.466;2022-12-29T06:30:52;3.23;;;0.83;;
9420;SDS011;4749;51.398;5.466;2022-12-29T06:33:19;5.87;;;1.10;;
9420;SDS011;4749;51.398;5.466;2022-12-29T06:35:47;3.80;;;1.07;;
9420;SDS011;4749;51.398;5.466;2022-12-29T06:38:14;5.23;;;0.90;;
9420;SDS011;4749;51.398;5.466;2022-12-29T06:40:42;4.83;;;1.10;;
9420;SDS011;4749;51.398;5.466;2022-12-29T06:43:11;4.43;;;1.20;;
9420;SDS011;4749;51.398;5.466;2022-12-29T06:45:39;6.33;;;1.10;;
9420;SDS011;4749;51.398;5.466;2022-12-29T06:48:07;6.50;;;1.20;;
9420;SDS011;4749;51.398;5.466;2022-12-29T06:50:34;5.37;;;1.30;;
9420;SDS011;4749;51.398;5.466;2022-12-29T06:53:01;8.07;;;1.70;;
9420;SDS011;4749;51.398;5.466;2022-12-29T06:55:28;4.83;;;1.50;;
9420;SDS011;4749;51.398;5.466;2022-12-29T06:57:56;4.17;;;0.87;;
9420;SDS011;4749;51.398;5.466;2022-12-29T07:00:24;6.13;;;1.37;;
9420;SDS011;4749;51.398;5.466;2022-12-29T07:02:51;6.80;;;2.03;;
9420;SDS011;4749;51.398;5.466;2022-12-29T07:05:21;5.83;;;1.50;;
9420;SDS011;4749;51.398;5.466;2022-12-29T07:07:48;5.13;;;1.10;;
9420;SDS011;4749;51.398;5.466;2022-12-29T07:10:15;5.70;;;1.37;;
9420;SDS011;4749;51.398;5.466;2022-12-29T07:12:42;4.70;;;1.23;;
9420;SDS011;4749;51.398;5.466;2022-12-29T07:15:09;6.40;;;1.40;;
9420;SDS011;4749;51.398;5.466;2022-12-29T07:17:37;6.13;;;1.63;;
9420;SDS011;4749;51.398;5.466;2022-12-29T07:20:05;12.80;;;1.63;;
9420;SDS011;4749;51.398;5.466;2022-12-29T07:22:33;6.83;;;1.63;;
9420;SDS011;4749;51.398;5.466;2022-12-29T07:25:00;5.50;;;1.60;;
9420;SDS011;4749;51.398;5.466;2022-12-29T07:27:28;9.17;;;1.53;;
9420;SDS011;4749;51.398;5.466;2022-12-29T07:29:55;15.90;;;2.33;;
9420;SDS011;4749;51.398;5.466;2022-12-29T07:32:22;6.10;;;1.40;;
9420;SDS011;4749;51.398;5.466;2022-12-29T07:34:49;8.33;;;1.50;;
9420;SDS011;4749;51.398;5.466;2022-12-29T07:37:17;6.07;;;1.40;;
9420;SDS011;4749;51.398;5.466;2022-12-29T07:39:44;9.20;;;1.60;;
9420;SDS011;4749;51.398;5.466;2022-12-29T07:42:11;6.63;;;1.50;;
9420;SDS011;4749;51.398;5.466;2022-12-29T07:44:39;7.20;;;1.50;;
9420;SDS011;4749;51.398;5.466;2022-12-29T07:47:06;7.17;;;1.30;;
9420;SDS011;4749;51.398;5.466;2022-12-29T07:49:33;6.37;;;1.20;;
9420;SDS011;4749;51.398;5.466;2022-12-29T07:52:00;4.03;;;1.23;;
9420;SDS011;4749;51.398;5.466;2022-12-29T07:54:27;9.50;;;1.30;;
9420;SDS011;4749;51.398;5.466;2022-12-29T07:56:54;6.20;;;1.33;;
9420;SDS011;4749;51.398;5.466;2022-12-29T07:59:22;5.53;;;1.20;;
9420;SDS011;4749;51.398;5.466;2022-12-29T08:01:49;5.40;;;1.90;;
9420;SDS011;4749;51.398;5.466;2022-12-29T08:04:16;5.53;;;1.10;;
9420;SDS011;4749;51.398;5.466;2022-12-29T08:06:44;8.17;;;2.13;;
9420;SDS011;4749;51.398;5.466;2022-12-29T08:09:11;6.73;;;1.33;;
9420;SDS011;4749;51.398;5.466;2022-12-29T08:11:47;6.70;;;1.40;;
9420;SDS011;4749;51.398;5.466;2022-12-29T08:14:15;5.70;;;1.40;;
9420;SDS011;4749;51.398;5.466;2022-12-29T08:16:42;6.10;;;1.40;;
9420;SDS011;4749;51.398;5.466;2022-12-29T08:19:12;7.97;;;1.43;;
9420;SDS011;4749;51.398;5.466;2022-12-29T08:21:39;8.13;;;1.30;;
9420;SDS011;4749;51.398;5.466;2022-12-29T08:24:07;8.27;;;1.73;;
9420;SDS011;4749;51.398;5.466;2022-12-29T08:26:35;7.93;;;1.60;;
9420;SDS011;4749;51.398;5.466;2022-12-29T08:29:02;9.20;;;1.50;;
9420;SDS011;4749;51.398;5.466;2022-12-29T08:31:29;5.97;;;1.67;;
9420;SDS011;4749;51.398;5.466;2022-12-29T08:33:56;4.47;;;1.17;;
9420;SDS011;4749;51.398;5.466;2022-12-29T08:36:24;9.63;;;2.50;;
9420;SDS011;4749;51.398;5.466;2022-12-29T08:38:51;8.30;;;1.63;;
9420;SDS011;4749;51.398;5.466;2022-12-29T08:41:18;7.23;;;1.30;;
9420;SDS011;4749;51.398;5.466;2022-12-29T08:43:46;4.50;;;1.60;;
9420;SDS011;4749;51.398;5.466;2022-12-29T08:46:14;8.00;;;1.63;;
9420;SDS011;4749;51.398;5.466;2022-12-29T08:48:43;7.53;;;1.67;;
9420;SDS011;4749;51.398;5.466;2022-12-29T08:51:10;6.23;;;1.47;;
9420;SDS011;4749;51.398;5.466;2022-12-29T08:53:37;6.47;;;1.30;;
9420;SDS011;4749;51.398;5.466;2022-12-29T08:56:04;6.27;;;1.60;;
9420;SDS011;4749;51.398;5.466;2022-12-29T08:58:32;5.80;;;1.33;;
9420;SDS011;4749;51.398;5.466;2022-12-29T09:00:59;6.87;;;1.20;;
9420;SDS011;4749;51.398;5.466;2022-12-29T09:03:26;9.83;;;1.33;;
9420;SDS011;4749;51.398;5.466;2022-12-29T09:06:14;5.97;;;1.53;;
9420;SDS011;4749;51.398;5.466;2022-12-29T09:08:43;6.53;;;1.90;;
9420;SDS011;4749;51.398;5.466;2022-12-29T09:11:18;6.17;;;1.87;;
9420;SDS011;4749;51.398;5.466;2022-12-29T09:13:49;7.35;;;2.00;;
9420;SDS011;4749;51.398;5.466;2022-12-29T09:16:18;8.82;;;1.90;;
9420;SDS011;4749;51.398;5.466;2022-12-29T09:18:47;6.33;;;1.73;;
9420;SDS011;4749;51.398;5.466;2022-12-29T09:21:14;4.97;;;1.67;;
9420;SDS011;4749;51.398;5.466;2022-12-29T09:23:42;4.85;;;1.58;;
9420;SDS011;4749;51.398;5.466;2022-12-29T09:26:09;6.93;;;1.80;;
9420;SDS011;4749;51.398;5.466;2022-12-29T09:28:36;7.38;;;1.73;;
9420;SDS011;4749;51.398;5.466;2022-12-29T09:31:03;10.88;;;2.00;;
9420;SDS011;4749;51.398;5.466;2022-12-29T09:33:30;8.60;;;2.20;;
9420;SDS011;4749;51.398;5.466;2022-12-29T09:35:59;5.22;;;1.38;;
9420;SDS011;4749;51.398;5.466;2022-12-29T09:38:27;9.30;;;1.30;;
9420;SDS011;4749;51.398;5.466;2022-12-29T09:40:56;6.53;;;1.40;;
9420;SDS011;4749;51.398;5.466;2022-12-29T09:43:51;6.47;;;1.80;;
9420;SDS011;4749;51.398;5.466;2022-12-29T09:46:40;6.93;;;1.60;;
9420;SDS011;4749;51.398;5.466;2022-12-29T09:51:46;8.67;;;2.03;;
9420;SDS011;4749;51.398;5.466;2022-12-29T09:57:24;5.97;;;1.73;;
9420;SDS011;4749;51.398;5.466;2022-12-29T09:59:58;7.70;;;1.40;;
9420;SDS011;4749;51.398;5.466;2022-12-29T10:02:38;6.30;;;1.17;;
9420;SDS011;4749;51.398;5.466;2022-12-29T10:05:30;5.83;;;1.53;;
9420;SDS011;4749;51.398;5.466;2022-12-29T10:09:21;4.97;;;1.57;;
9420;SDS011;4749;51.398;5.466;2022-12-29T10:12:02;9.33;;;1.93;;
9420;SDS011;4749;51.398;5.466;2022-12-29T10:21:08;7.03;;;1.67;;
9420;SDS011;4749;51.398;5.466;2022-12-29T10:24:12;5.77;;;1.70;;
9420;SDS011;4749;51.398;5.466;2022-12-29T10:26:41;8.30;;;1.83;;
9420;SDS011;4749;51.398;5.466;2022-12-29T10:29:13;7.43;;;1.70;;
9420;SDS011;4749;51.398;5.466;2022-12-29T10:31:48;7.03;;;1.60;;
9420;SDS011;4749;51.398;5.466;2022-12-29T10:34:39;8.03;;;1.77;;
9420;SDS011;4749;51.398;5.466;2022-12-29T10:37:38;7.63;;;1.50;;
9420;SDS011;4749;51.398;5.466;2022-12-29T10:46:20;4.83;;;1.63;;
9420;SDS011;4749;51.398;5.466;2022-12-29T10:48:51;6.23;;;1.50;;
9420;SDS011;4749;51.398;5.466;2022-12-29T10:51:22;5.47;;;1.57;;
9420;SDS011;4749;51.398;5.466;2022-12-29T10:54:00;9.67;;;2.60;;
9420;SDS011;4749;51.398;5.466;2022-12-29T10:56:51;3.53;;;1.60;;
9420;SDS011;4749;51.398;5.466;2022-12-29T11:07:16;5.77;;;1.73;;
9420;SDS011;4749;51.398;5.466;2022-12-29T11:09:52;6.07;;;1.40;;
9420;SDS011;4749;51.398;5.466;2022-12-29T11:12:30;10.18;;;2.42;;
9420;SDS011;4749;51.398;5.466;2022-12-29T11:15:02;7.15;;;1.35;;
9420;SDS011;4749;51.398;5.466;2022-12-29T11:17:42;7.70;;;1.60;;
9420;SDS011;4749;51.398;5.466;2022-12-29T11:20:30;6.17;;;1.57;;
9420;SDS011;4749;51.398;5.466;2022-12-29T11:23:02;6.82;;;1.50;;
9420;SDS011;4749;51.398;5.466;2022-12-29T11:25:32;6.80;;;1.50;;
9420;SDS011;4749;51.398;5.466;2022-12-29T11:28:15;6.85;;;1.40;;
9420;SDS011;4749;51.398;5.466;2022-12-29T11:30:43;5.53;;;1.50;;
9420;SDS011;4749;51.398;5.466;2022-12-29T11:33:10;8.10;;;2.13;;
9420;SDS011;4749;51.398;5.466;2022-12-29T11:35:41;8.75;;;1.90;;
9420;SDS011;4749;51.398;5.466;2022-12-29T11:38:20;8.18;;;1.80;;
9420;SDS011;4749;51.398;5.466;2022-12-29T11:40:52;13.90;;;2.85;;
9420;SDS011;4749;51.398;5.466;2022-12-29T11:43:53;7.35;;;1.60;;
9420;SDS011;4749;51.398;5.466;2022-12-29T11:46:14;4.93;;;1.42;;
9420;SDS011;4749;51.398;5.466;2022-12-29T11:48:51;10.90;;;2.15;;
9420;SDS011;4749;51.398;5.466;2022-12-29T11:51:23;7.82;;;1.65;;
9420;SDS011;4749;51.398;5.466;2022-12-29T11:53:56;6.03;;;1.70;;
9420;SDS011;4749;51.398;5.466;2022-12-29T12:02:00;8.60;;;1.73;;
9420;SDS011;4749;51.398;5.466;2022-12-29T12:05:12;9.65;;;1.80;;
9420;SDS011;4749;51.398;5.466;2022-12-29T12:08:26;6.13;;;1.50;;
9420;SDS011;4749;51.398;5.466;2022-12-29T12:11:40;6.88;;;1.40;;
9420;SDS011;4749;51.398;5.466;2022-12-29T12:14:13;8.75;;;2.30;;
9420;SDS011;4749;51.398;5.466;2022-12-29T12:16:59;6.63;;;1.67;;
9420;SDS011;4749;51.398;5.466;2022-12-29T12:26:13;8.73;;;1.80;;
9420;SDS011;4749;51.398;5.466;2022-12-29T12:31:55;6.83;;;1.47;;
9420;SDS011;4749;51.398;5.466;2022-12-29T12:34:45;7.77;;;1.60;;
9420;SDS011;4749;51.398;5.466;2022-12-29T12:40:13;6.22;;;1.60;;
9420;SDS011;4749;51.398;5.466;2022-12-29T12:58:38;6.15;;;2.00;;
9420;SDS011;4749;51.398;5.466;2022-12-29T13:01:38;8.15;;;1.55;;
9420;SDS011;4749;51.398;5.466;2022-12-29T13:04:52;5.50;;;1.80;;
9420;SDS011;4749;51.398;5.466;2022-12-29T13:13:46;11.80;;;2.28;;
9420;SDS011;4749;51.398;5.466;2022-12-29T13:21:50;7.67;;;1.63;;
9420;SDS011;4749;51.398;5.466;2022-12-29T13:24:57;9.63;;;1.83;;
9420;SDS011;4749;51.398;5.466;2022-12-29T13:36:19;9.77;;;2.10;;
9420;SDS011;4749;51.398;5.466;2022-12-29T13:39:15;10.37;;;2.30;;
9420;SDS011;4749;51.398;5.466;2022-12-29T13:41:53;5.43;;;1.73;;
9420;SDS011;4749;51.398;5.466;2022-12-29T13:47:25;6.97;;;1.60;;
9420;SDS011;4749;51.398;5.466;2022-12-29T13:50:16;7.87;;;1.80;;
9420;SDS011;4749;51.398;5.466;2022-12-29T13:58:26;9.60;;;1.93;;
9420;SDS011;4749;51.398;5.466;2022-12-29T14:01:23;6.27;;;2.10;;
9420;SDS011;4749;51.398;5.466;2022-12-29T14:03:56;5.37;;;1.47;;
9420;SDS011;4749;51.398;5.466;2022-12-29T14:08:56;9.87;;;1.90;;
9420;SDS011;4749;51.398;5.466;2022-12-29T14:11:36;6.20;;;1.90;;
9420;SDS011;4749;51.398;5.466;2022-12-29T14:14:27;7.87;;;2.50;;
9420;SDS011;4749;51.398;5.466;2022-12-29T14:17:18;6.97;;;2.10;;
9420;SDS011;4749;51.398;5.466;2022-12-29T14:19:47;6.43;;;1.53;;
9420;SDS011;4749;51.398;5.466;2022-12-29T14:22:26;10.27;;;1.93;;
9420;SDS011;4749;51.398;5.466;2022-12-29T14:24:58;8.87;;;1.90;;
9420;SDS011;4749;51.398;5.466;2022-12-29T14:29:56;5.67;;;1.40;;
9420;SDS011;4749;51.398;5.466;2022-12-29T14:34:56;10.07;;;1.73;;
9420;SDS011;4749;51.398;5.466;2022-12-29T14:40:16;7.33;;;1.73;;
9420;SDS011;4749;51.398;5.466;2022-12-29T14:42:54;5.33;;;1.40;;
9420;SDS011;4749;51.398;5.466;2022-12-29T14:45:29;10.40;;;2.10;;
9420;SDS011;4749;51.398;5.466;2022-12-29T14:47:59;9.27;;;2.20;;
9420;SDS011;4749;51.398;5.466;2022-12-29T14:56:19;8.33;;;1.80;;
9420;SDS011;4749;51.398;5.466;2022-12-29T14:58:59;7.00;;;1.80;;
9420;SDS011;4749;51.398;5.466;2022-12-29T15:01:43;6.53;;;1.87;;
9420;SDS011;4749;51.398;5.466;2022-12-29T15:04:21;8.90;;;2.13;;
9420;SDS011;4749;51.398;5.466;2022-12-29T15:06:53;11.33;;;1.80;;
9420;SDS011;4749;51.398;5.466;2022-12-29T15:12:11;5.57;;;1.47;;
9420;SDS011;4749;51.398;5.466;2022-12-29T15:14:54;9.33;;;2.23;;
9420;SDS011;4749;51.398;5.466;2022-12-29T15:19:55;5.83;;;1.40;;
9420;SDS011;4749;51.398;5.466;2022-12-29T15:22:24;4.80;;;1.77;;
9420;SDS011;4749;51.398;5.466;2022-12-29T15:24:53;4.17;;;1.47;;
9420;SDS011;4749;51.398;5.466;2022-12-29T15:27:23;5.30;;;1.60;;
9420;SDS011;4749;51.398;5.466;2022-12-29T15:29:59;4.17;;;1.30;;
9420;SDS011;4749;51.398;5.466;2022-12-29T15:32:38;4.67;;;1.30;;
9420;SDS011;4749;51.398;5.466;2022-12-29T15:35:22;5.20;;;1.40;;
9420;SDS011;4749;51.398;5.466;2022-12-29T15:38:12;7.03;;;1.70;;
9420;SDS011;4749;51.398;5.466;2022-12-29T15:41:06;4.10;;;1.27;;
9420;SDS011;4749;51.398;5.466;2022-12-29T15:44:23;6.17;;;1.53;;
9420;SDS011;4749;51.398;5.466;2022-12-29T15:47:01;6.93;;;1.50;;
9420;SDS011;4749;51.398;5.466;2022-12-29T15:49:41;3.97;;;1.13;;
9420;SDS011;4749;51.398;5.466;2022-12-29T15:52:10;5.13;;;1.23;;
9420;SDS011;4749;51.398;5.466;2022-12-29T15:54:44;3.67;;;1.10;;
9420;SDS011;4749;51.398;5.466;2022-12-29T15:59:57;2.97;;;1.17;;
9420;SDS011;4749;51.398;5.466;2022-12-29T16:02:26;4.97;;;1.70;;
9420;SDS011;4749;51.398;5.466;2022-12-29T16:04:54;6.00;;;1.50;;
9420;SDS011;4749;51.398;5.466;2022-12-29T16:07:51;3.60;;;0.90;;
9420;SDS011;4749;51.398;5.466;2022-12-29T16:10:25;3.67;;;1.17;;
9420;SDS011;4749;51.398;5.466;2022-12-29T16:13:04;4.23;;;1.20;;
9420;SDS011;4749;51.398;5.466;2022-12-29T16:15:38;3.43;;;0.93;;
9420;SDS011;4749;51.398;5.466;2022-12-29T16:18:10;3.03;;;1.23;;
9420;SDS011;4749;51.398;5.466;2022-12-29T16:20:53;3.57;;;1.80;;
9420;SDS011;4749;51.398;5.466;2022-12-29T16:23:25;7.87;;;3.43;;
9420;SDS011;4749;51.398;5.466;2022-12-29T16:25:55;6.00;;;2.10;;
9420;SDS011;4749;51.398;5.466;2022-12-29T16:28:35;7.93;;;1.63;;
9420;SDS011;4749;51.398;5.466;2022-12-29T16:31:18;7.13;;;1.20;;
9420;SDS011;4749;51.398;5.466;2022-12-29T16:34:12;5.73;;;1.10;;
9420;SDS011;4749;51.398;5.466;2022-12-29T16:37:37;6.07;;;1.50;;
9420;SDS011;4749;51.398;5.466;2022-12-29T16:39:54;3.77;;;1.20;;
9420;SDS011;4749;51.398;5.466;2022-12-29T16:47:46;5.67;;;1.80;;
9420;SDS011;4749;51.398;5.466;2022-12-29T16:50:26;6.60;;;1.20;;
9420;SDS011;4749;51.398;5.466;2022-12-29T16:52:54;4.87;;;1.30;;
9420;SDS011;4749;51.398;5.466;2022-12-29T16:55:21;8.40;;;1.93;;
9420;SDS011;4749;51.398;5.466;2022-12-29T16:57:49;5.63;;;1.47;;
9420;SDS011;4749;51.398;5.466;2022-12-29T17:00:20;10.20;;;2.00;;
9420;SDS011;4749;51.398;5.466;2022-12-29T17:03:01;6.70;;;1.53;;
9420;SDS011;4749;51.398;5.466;2022-12-29T17:05:29;4.70;;;1.60;;
9420;SDS011;4749;51.398;5.466;2022-12-29T17:07:56;13.10;;;2.27;;
9420;SDS011;4749;51.398;5.466;2022-12-29T17:10:27;7.90;;;1.50;;
9420;SDS011;4749;51.398;5.466;2022-12-29T17:13:14;10.53;;;2.10;;
9420;SDS011;4749;51.398;5.466;2022-12-29T17:15:41;13.67;;;2.00;;
9420;SDS011;4749;51.398;5.466;2022-12-29T17:18:09;5.70;;;1.40;;
9420;SDS011;4749;51.398;5.466;2022-12-29T17:20:39;7.43;;;1.43;;
9420;SDS011;4749;51.398;5.466;2022-12-29T17:23:14;10.47;;;2.77;;
9420;SDS011;4749;51.398;5.466;2022-12-29T17:25:51;12.37;;;2.13;;
9420;SDS011;4749;51.398;5.466;2022-12-29T17:30:53;10.13;;;1.63;;
9420;SDS011;4749;51.398;5.466;2022-12-29T17:33:29;5.77;;;2.00;;
9420;SDS011;4749;51.398;5.466;2022-12-29T17:36:03;5.83;;;1.77;;
9420;SDS011;4749;51.398;5.466;2022-12-29T17:38:31;8.17;;;1.70;;
9420;SDS011;4749;51.398;5.466;2022-12-29T17:41:02;6.47;;;1.70;;
9420;SDS011;4749;51.398;5.466;2022-12-29T17:43:30;9.67;;;2.03;;
9420;SDS011;4749;51.398;5.466;2022-12-29T17:46:02;6.40;;;1.90;;
9420;SDS011;4749;51.398;5.466;2022-12-29T17:48:33;5.57;;;1.70;;
9420;SDS011;4749;51.398;5.466;2022-12-29T17:51:01;12.83;;;2.07;;
9420;SDS011;4749;51.398;5.466;2022-12-29T17:53:29;10.17;;;2.03;;
9420;SDS011;4749;51.398;5.466;2022-12-29T17:55:56;11.03;;;2.13;;
9420;SDS011;4749;51.398;5.466;2022-12-29T17:58:24;7.80;;;1.50;;
9420;SDS011;4749;51.398;5.466;2022-12-29T18:00:55;9.07;;;2.27;;
9420;SDS011;4749;51.398;5.466;2022-12-29T18:03:30;5.40;;;1.60;;
9420;SDS011;4749;51.398;5.466;2022-12-29T18:06:00;8.87;;;2.00;;
9420;SDS011;4749;51.398;5.466;2022-12-29T18:08:31;7.83;;;2.00;;
9420;SDS011;4749;51.398;5.466;2022-12-29T18:11:00;9.80;;;2.73;;
9420;SDS011;4749;51.398;5.466;2022-12-29T18:13:30;8.60;;;2.03;;
9420;SDS011;4749;51.398;5.466;2022-12-29T18:16:12;7.27;;;2.43;;
9420;SDS011;4749;51.398;5.466;2022-12-29T18:18:40;9.13;;;2.30;;
9420;SDS011;4749;51.398;5.466;2022-12-29T18:21:20;9.50;;;2.60;;
9420;SDS011;4749;51.398;5.466;2022-12-29T18:23:49;10.47;;;2.60;;
9420;SDS011;4749;51.398;5.466;2022-12-29T18:26:21;14.73;;;3.37;;
9420;SDS011;4749;51.398;5.466;2022-12-29T18:28:54;15.60;;;3.47;;
9420;SDS011;4749;51.398;5.466;2022-12-29T18:33:53;8.30;;;2.67;;
9420;SDS011;4749;51.398;5.466;2022-12-29T18:36:21;11.57;;;2.50;;